Aérodrome :
LOGIN :

S'inscrire | Disclaimer

   EN    FR    IT 

 










Légende :    VFR   VFR Marginal   IFR   IFR Intensif   IFR Très Intensif
Visi : 
Plafond : 
>= 8 km
>= 3000ft
5 à 8 km
1000 à 3000 ft
1500m à 5 km
500 à 1000 ft
800 à 1500m
200 à 500 ft
< 800m
< 200 ft
Symboles :   Orages  Brouillard  Fortes neiges  Fortes précipitations  Vent > 20 kt
SIGMETs :   Divers  Orages  Givrage  Turbulence  Onde Orograph.  Cendres Volcan.







- Altitude de l'aérodrome : 909 ft
- Code IATA : KSF


EDVK - Kassel Calden

DERNIER METAR :
  • 231520Z 02014KT 9999 -RA SCT006 BKN011 OVC021 10/09 Q1005 RERA

METARs EXPIRÉS :
  • 231450Z 01015KT 8000 RA BKN005 BKN010 OVC020 10/10 Q1005
  • 231420Z 35014KT 5000 RA BR FEW003 SCT006 OVC009 10/10 Q1006
  • 231350Z 02007KT 340V050 6000 2600SW RA FEW003 SCT006 OVC009 10/10 Q1005
  • 231320Z 02005KT 330V070 4400 RA BR FEW003 BKN007 OVC011 11/10 Q1006
  • 231250Z 03007KT 350V060 6000 2000SW RA FEW003 SCT006 OVC012 11/10 Q1005

TAF TAF EDVK
Valide du 23 à 15h jusqu'au 24 à 00h UTC


231400Z 2315/2324 02007KT 6000 RA SCT004 BKN008
TEMPO 2315/2318 36015G25KT 3500 RADZ BKN004
BECMG 2317/2319 31011KT NSW SCT012
TEMPO 2318/2324 32015G25KT 4000 SHRA BKN009TCU
Pas de NOTAMs connus pour ce terrain.
1 SIGMET publié pour la FIR Bremen (EDWW) :
 
Turbulence forte
EDWW SIGMET 1 VALID 231511/231610 EDZH
EDWW BREMEN FIR SEV TURB OBS WI N5323 E00955 - N5308 E01054 - N5239 E01040 - N5257 E00935 - N5323 E00955 FL150/190 STNR NC=



MET'MAP, la Météo Aéronautique d'un coup d'oeil ! - Copyright ORBIFLY Décembre 2007 - Disclaimer

ORBIFLY MET'MAP TEAM :

Programmation & Développement : Alexandra Zaïnal
Conception & Développement : Baudouin d'Aumeries
Co-Programmation & Développement : Marc-Olivier Méhu
Soutien technique & logistique : Manuel Goepfert

Contact : metmap@orbifly.com




SOURCES & CREDITS :

   NOAA